Time;durP1;ratioP1;P1;durP2;ratioP2;P2;SDS_P1;SDS_P2;PMS_P1;PMS_P2;Temp;Humidity;BMP_temperature;BMP_pressure;BME280_temperature;BME280_humidity;BME280_pressure;Samples;Min_cycle;Max_cycle;Signal;HPM_P1;HPM_P2
2021/10/26 00:04:32;;;;;;;10.80;6.20;;;;;;;5.30;62.31;100341.92;227500;1198;138834;-70
2021/10/26 00:09:49;;;;;;;;;;;;;;;;;;;;;
2021/10/26 00:15:24;;;;;;;;;;;;;;;;;;;;;
2021/10/26 00:20:38;;;;;;;7.30;5.70;;;;;;;5.36;62.45;100331.99;226609;1198;139807;-67
2021/10/26 00:25:53;;;;;;;8.10;4.80;;;;;;;5.34;62.65;100329.48;226554;1198;139010;-68
2021/10/26 00:31:09;;;;;;;12.70;5.70;;;;;;;5.33;62.50;100333.58;229107;1198;139115;-69
2021/10/26 00:36:13;;;;;;;10.10;5.60;;;;;;;5.30;62.44;100340.00;228998;1200;139658;-69
2021/10/26 00:41:18;;;;;;;5.40;4.40;;;;;;;5.25;62.42;100335.59;229025;1200;139684;-69
2021/10/26 00:46:40;;;;;;;7.80;5.40;;;;;;;5.20;62.61;100343.55;229083;1198;139984;-69
2021/10/26 00:51:44;;;;;;;10.70;5.70;;;;;;;5.16;62.78;100341.76;229303;1198;138566;-68
2021/10/26 00:56:47;;;;;;;12.70;6.30;;;;;;;5.14;62.87;100342.05;227249;1198;140495;-69
2021/10/26 01:02:04;;;;;;;10.10;5.80;;;;;;;5.13;62.64;100346.31;226528;1198;140317;-68
2021/10/26 01:07:12;;;;;;;10.20;5.50;;;;;;;5.14;62.92;100342.48;227837;1198;141857;-69
2021/10/26 01:12:41;;;;;;;;;;;;;;;;;;;;;
2021/10/26 01:17:47;;;;;;;11.60;6.50;;;;;;;5.08;63.02;100336.73;226214;1198;140174;-67
2021/10/26 01:22:52;;;;;;;10.10;5.70;;;;;;;5.02;63.08;100330.29;226543;1198;138968;-67
2021/10/26 01:28:04;;;;;;;11.00;6.20;;;;;;;4.96;63.19;100327.52;228195;1198;140599;-67
2021/10/26 01:33:21;;;;;;;7.70;5.90;;;;;;;4.86;63.31;100328.08;226864;1198;141084;-68
2021/10/26 01:38:27;;;;;;;10.40;5.90;;;;;;;4.71;63.48;100320.48;226565;1200;141042;-68
2021/10/26 01:44:06;;;;;;;;;;;;;;;;;;;;;
2021/10/26 01:49:19;;;;;;;7.70;5.40;;;;;;;4.48;63.83;100331.93;226780;1199;139207;-68
2021/10/26 01:54:29;;;;;;;12.60;5.20;;;;;;;4.47;64.22;100335.25;227502;1200;139083;-67
2021/10/26 02:00:01;;;;;;;;;;;;;;;;;;;;;
2021/10/26 02:05:46;;;;;;;;;;;;;;;;;;;;;
2021/10/26 02:10:54;;;;;;;13.90;7.40;;;;;;;4.18;64.94;100330.05;227167;1200;140341;-67
2021/10/26 02:16:18;;;;;;;15.30;8.30;;;;;;;4.12;65.07;100330.39;226461;1200;139908;-67
2021/10/26 02:21:28;;;;;;;6.60;5.30;;;;;;;4.05;65.21;100326.91;227610;1198;140227;-68
2021/10/26 02:26:55;;;;;;;14.00;8.10;;;;;;;3.94;65.28;100327.73;227474;1199;163163;-68
2021/10/26 02:32:08;;;;;;;12.70;7.30;;;;;;;3.91;65.54;100333.70;226251;1200;140168;-66
2021/10/26 02:37:39;;;;;;;11.00;6.70;;;;;;;3.86;65.70;100334.73;228174;1198;140392;-67
2021/10/26 02:42:44;;;;;;;7.70;5.70;;;;;;;3.86;65.92;100332.29;228768;1198;139215;-68
2021/10/26 02:48:00;;;;;;;8.80;6.20;;;;;;;3.86;66.05;100332.98;229217;1198;141446;-68
2021/10/26 02:53:25;;;;;;;11.00;6.80;;;;;;;3.88;66.02;100326.93;229134;1198;140244;-64
2021/10/26 02:58:51;;;;;;;12.80;7.00;;;;;;;3.90;66.28;100325.30;229299;1198;138856;-69
2021/10/26 03:03:59;;;;;;;13.00;6.70;;;;;;;3.88;66.03;100323.31;229175;1198;140102;-68
2021/10/26 03:09:07;;;;;;;18.10;9.50;;;;;;;3.96;66.25;100325.67;228460;1198;141187;-68
2021/10/26 03:14:26;;;;;;;;;;;;;;;;;;;;;
2021/10/26 03:19:34;;;;;;;20.30;11.00;;;;;;;4.03;66.45;100328.14;226995;1198;139165;-68
2021/10/26 03:25:12;;;;;;;15.50;9.50;;;;;;;4.03;66.46;100325.05;227486;1198;140147;-68
2021/10/26 03:30:41;;;;;;;14.00;7.00;;;;;;;3.96;66.44;100326.60;228061;1198;139763;-68
2021/10/26 03:35:47;;;;;;;14.60;9.50;;;;;;;3.87;66.57;100325.60;227085;1198;139067;-70
2021/10/26 03:40:52;;;;;;;10.40;7.60;;;;;;;3.79;66.79;100321.16;227124;1198;139246;-67
2021/10/26 03:46:13;;;;;;;;;;;;;;;;;;;;;
2021/10/26 03:51:33;;;;;;;11.90;8.40;;;;;;;3.70;66.97;100324.45;226588;1198;140858;-67
2021/10/26 03:56:40;;;;;;;15.60;9.20;;;;;;;3.67;67.00;100318.77;226636;1198;140264;-67
2021/10/26 04:01:45;;;;;;;16.50;8.70;;;;;;;3.67;67.38;100312.68;227191;1198;139758;-67
2021/10/26 04:06:50;;;;;;;13.50;9.70;;;;;;;3.64;67.48;100308.14;227171;1198;139727;-66
2021/10/26 04:17:22;;;;;;;10.20;6.50;;;;;;;3.50;67.72;100303.56;227207;1198;139688;-67
2021/10/26 04:22:27;;;;;;;9.10;7.80;;;;;;;3.44;67.81;100291.28;226553;1198;140780;-67
2021/10/26 04:27:31;;;;;;;12.30;8.60;;;;;;;3.41;67.84;100284.13;227689;1198;140265;-68
2021/10/26 04:32:35;;;;;;;14.70;7.80;;;;;;;3.45;68.21;100283.80;228382;1198;140174;-69
2021/10/26 04:37:40;;;;;;;13.80;8.40;;;;;;;3.52;68.29;100281.95;227491;1198;140022;-68
2021/10/26 04:42:45;;;;;;;19.80;8.50;;;;;;;3.53;68.51;100284.05;228339;1200;141453;-69
2021/10/26 04:48:10;;;;;;;16.00;10.10;;;;;;;3.56;68.62;100286.77;229131;1200;139915;-69
2021/10/26 04:53:16;;;;;;;17.00;9.40;;;;;;;3.57;68.68;100283.86;229101;1198;140284;-67
2021/10/26 04:58:23;;;;;;;15.30;9.60;;;;;;;3.54;68.60;100286.91;229310;1198;141437;-67
2021/10/26 05:03:34;;;;;;;25.00;8.70;;;;;;;3.59;68.41;100283.25;227649;1198;140213;-70
2021/10/26 05:08:52;;;;;;;13.70;10.20;;;;;;;3.60;68.62;100279.62;228205;1198;141433;-68
2021/10/26 05:13:58;;;;;;;15.70;10.30;;;;;;;3.58;68.76;100278.02;228420;1198;140507;-68
2021/10/26 05:19:04;;;;;;;16.50;9.30;;;;;;;3.52;68.86;100276.44;228762;1198;139265;-67
2021/10/26 05:24:33;;;;;;;19.30;11.60;;;;;;;3.47;68.83;100272.65;227552;1198;139586;-66
2021/10/26 05:29:40;;;;;;;17.80;10.50;;;;;;;3.47;68.88;100272.26;227948;1199;140346;-67
2021/10/26 05:34:45;;;;;;;14.40;9.20;;;;;;;3.44;69.04;100275.87;228609;1198;139480;-67
2021/10/26 05:39:50;;;;;;;13.10;9.90;;;;;;;3.35;69.23;100285.46;226660;1198;139123;-66
2021/10/26 05:45:02;;;;;;;13.20;8.80;;;;;;;3.30;69.34;100297.25;227252;1198;139058;-66
2021/10/26 05:50:08;;;;;;;14.00;9.10;;;;;;;3.28;69.48;100303.33;227164;1199;140104;-66
2021/10/26 05:55:16;;;;;;;15.30;9.30;;;;;;;3.26;69.92;100303.70;227079;1198;139093;-66
2021/10/26 06:00:26;;;;;;;19.40;10.00;;;;;;;3.33;70.19;100308.86;226424;1199;139921;-65
2021/10/26 06:05:32;;;;;;;12.60;8.30;;;;;;;3.44;70.44;100316.88;227356;1198;139243;-66
2021/10/26 06:10:43;;;;;;;19.90;10.70;;;;;;;3.52;70.54;100314.46;226720;1199;140054;-67
2021/10/26 06:15:54;;;;;;;16.80;8.70;;;;;;;3.60;70.75;100320.02;226947;1199;139401;-65
2021/10/26 06:21:02;;;;;;;13.90;9.70;;;;;;;3.68;70.80;100325.52;227773;1198;140768;-66
2021/10/26 06:26:21;;;;;;;16.20;11.10;;;;;;;3.87;70.91;100321.46;227498;1198;139554;-67
2021/10/26 06:31:33;;;;;;;16.40;11.10;;;;;;;4.12;71.00;100328.29;228617;1198;139570;-67
2021/10/26 06:36:43;;;;;;;13.10;9.60;;;;;;;4.35;70.97;100329.05;228281;1198;139740;-68
2021/10/26 06:42:09;;;;;;;12.00;9.80;;;;;;;4.56;70.82;100327.39;228217;1198;139701;-67
2021/10/26 06:47:17;;;;;;;16.50;11.20;;;;;;;4.79;70.85;100327.21;227798;1198;140066;-68
2021/10/26 06:52:45;;;;;;;11.70;9.20;;;;;;;5.01;70.51;100335.73;229071;1198;140742;-68
2021/10/26 06:57:55;;;;;;;16.20;9.20;;;;;;;5.22;70.76;100341.70;229095;1198;140303;-68
2021/10/26 07:03:03;;;;;;;13.80;9.60;;;;;;;5.38;70.49;100334.61;229105;1198;164800;-70
2021/10/26 07:08:08;;;;;;;10.60;8.40;;;;;;;5.54;70.16;100332.66;229249;1198;140138;-70
2021/10/26 07:13:12;;;;;;;12.30;9.50;;;;;;;5.67;70.52;100328.98;228962;1198;141051;-70
2021/10/26 07:18:18;;;;;;;13.40;9.70;;;;;;;5.86;70.19;100337.55;228147;1198;140812;-70
2021/10/26 07:23:29;;;;;;;14.20;9.60;;;;;;;6.02;70.17;100340.95;227556;1198;160001;-69
2021/10/26 07:28:34;;;;;;;14.80;11.00;;;;;;;6.22;70.02;100346.23;227884;1198;139607;-69
2021/10/26 07:33:38;;;;;;;10.80;7.40;;;;;;;6.45;70.21;100328.36;226884;1200;141108;-69
2021/10/26 07:38:47;;;;;;;14.30;10.40;;;;;;;6.68;70.00;100330.55;226182;1198;139362;-68
2021/10/26 07:43:51;;;;;;;13.50;9.40;;;;;;;6.96;70.07;100330.01;226646;1200;142137;-68
2021/10/26 07:49:07;;;;;;;;;;;;;;;;;;;;;
2021/10/26 07:54:20;;;;;;;12.80;8.40;;;;;;;7.49;69.78;100318.05;227154;1198;141441;-68
2021/10/26 07:59:35;;;;;;;13.00;8.70;;;;;;;7.74;69.50;100322.42;226156;1198;141418;-67
2021/10/26 08:04:40;;;;;;;16.30;10.20;;;;;;;7.97;69.17;100308.41;226821;1199;139843;-66
2021/10/26 08:10:00;;;;;;;;;;;;;;;;;;;;;
2021/10/26 08:15:11;;;;;;;15.90;8.80;;;;;;;8.35;68.59;100316.27;227225;1198;141985;-66
2021/10/26 08:20:17;;;;;;;12.70;9.10;;;;;;;8.51;68.13;100316.95;227547;1198;141760;-65
2021/10/26 08:25:28;;;;;;;11.50;8.10;;;;;;;8.69;67.98;100302.75;226413;1198;140515;-65
2021/10/26 08:36:31;;;;;;;13.60;8.50;;;;;;;9.05;67.52;100297.20;227968;1199;139622;-67
2021/10/26 08:41:37;;;;;;;17.60;11.00;;;;;;;9.20;67.26;100306.91;228281;1198;139599;-68
2021/10/26 08:46:45;;;;;;;11.80;9.70;;;;;;;9.37;66.97;100297.05;227546;1199;140339;-66
2021/10/26 08:51:52;;;;;;;13.20;9.60;;;;;;;9.53;66.80;100301.08;228365;1199;139742;-68
2021/10/26 08:56:58;;;;;;;15.50;9.30;;;;;;;9.59;66.33;100303.67;227933;1199;140781;-70
2021/10/26 09:02:04;;;;;;;12.50;7.70;;;;;;;9.75;66.38;100308.45;228890;1199;140487;-69
2021/10/26 09:07:44;;;;;;;13.10;9.80;;;;;;;9.93;66.22;100313.03;228976;1199;140145;-68
2021/10/26 09:19:07;;;;;;;;;;;;;;;;;;;;;
2021/10/26 09:24:19;;;;;;;14.60;9.30;;;;;;;10.46;64.92;100313.87;226788;1200;141398;-68
2021/10/26 09:30:18;;;;;;;10.40;7.20;;;;;;;10.64;64.93;100320.56;227315;1199;140293;-69
2021/10/26 09:35:56;;;;;;;8.90;7.70;;;;;;;10.81;64.49;100315.61;226186;1199;140813;-68
2021/10/26 09:41:10;;;;;;;11.10;6.80;;;;;;;10.93;64.26;100312.73;226226;1200;140057;-68
2021/10/26 09:46:36;;;;;;;;;;;;;;;;;;;;;
2021/10/26 09:52:50;;;;;;;;;;;;;;;;;;;;;
2021/10/26 09:58:37;;;;;;;;;;;;;;;;;;;;;
2021/10/26 10:04:19;;;;;;;13.50;7.70;;;;;;;11.61;63.46;100303.68;226490;1200;140046;-69
2021/10/26 10:09:32;;;;;;;10.80;8.40;;;;;;;11.87;63.11;100296.96;226330;1199;139472;-69
2021/10/26 10:14:55;;;;;;;;;;;;;;;;;;;;;
2021/10/26 10:20:20;;;;;;;10.40;7.70;;;;;;;12.23;62.55;100288.64;226981;1199;139395;-70
2021/10/26 10:25:28;;;;;;;9.30;8.40;;;;;;;12.54;62.03;100290.88;228448;1199;139764;-70
2021/10/26 10:30:42;;;;;;;21.40;7.50;;;;;;;12.79;61.55;100289.70;226404;1199;139319;-69
2021/10/26 10:35:53;;;;;;;10.50;7.70;;;;;;;12.99;61.22;100282.14;227274;1200;139658;-70
2021/10/26 10:41:32;;;;;;;8.40;7.00;;;;;;;13.15;60.95;100273.86;226715;1199;141487;-68
2021/10/26 10:46:59;;;;;;;;;;;;;;;;;;;;;
2021/10/26 10:52:34;;;;;;;8.20;6.30;;;;;;;13.46;59.79;100263.15;228275;1200;139975;-70
2021/10/26 10:57:50;;;;;;;11.90;6.90;;;;;;;13.50;59.45;100252.29;227643;1199;139575;-70
2021/10/26 11:03:36;;;;;;;13.30;6.50;;;;;;;13.61;59.21;100246.28;226978;1199;141416;-70
2021/10/26 11:08:48;;;;;;;8.60;7.80;;;;;;;13.74;59.05;100234.52;228937;1199;139449;-69
2021/10/26 11:14:41;;;;;;;10.90;6.00;;;;;;;13.77;58.89;100225.52;228966;1199;139723;-69
2021/10/26 11:19:46;;;;;;;8.70;6.70;;;;;;;13.77;58.21;100221.52;227187;1199;140227;-69
2021/10/26 11:25:23;;;;;;;17.90;6.80;;;;;;;13.79;58.21;100226.84;227327;1199;139993;-70
2021/10/26 11:31:13;;;;;;;10.10;6.30;;;;;;;13.98;57.84;100225.65;226807;1199;141582;-70
2021/10/26 11:36:33;;;;;;;;;;;;;;;;;;;;;
2021/10/26 11:41:45;;;;;;;10.60;6.90;;;;;;;14.25;57.31;100229.80;226319;1198;139317;-69
2021/10/26 11:47:00;;;;;;;7.10;5.60;;;;;;;14.28;57.00;100233.45;227457;1198;140455;-70
2021/10/26 11:52:10;;;;;;;8.80;5.60;;;;;;;14.31;56.71;100232.95;226758;1198;140304;-69
2021/10/26 11:57:35;;;;;;;7.10;5.70;;;;;;;14.21;56.53;100232.05;226400;1198;139859;-68
2021/10/26 12:02:44;;;;;;;9.20;6.20;;;;;;;14.13;56.46;100221.69;226823;1198;139166;-68
2021/10/26 12:08:12;;;;;;;5.60;5.00;;;;;;;14.19;56.74;100214.27;226602;1198;139847;-69
2021/10/26 12:13:33;;;;;;;12.10;7.90;;;;;;;14.23;56.59;100214.05;227751;1198;140886;-70
2021/10/26 12:18:52;;;;;;;9.20;6.10;;;;;;;14.24;56.44;100211.30;227813;1198;140397;-70
2021/10/26 12:24:04;;;;;;;8.90;6.10;;;;;;;14.14;56.53;100219.23;227334;1200;139801;-69
2021/10/26 12:29:12;;;;;;;6.90;6.30;;;;;;;14.04;56.46;100212.50;226144;1198;139217;-70
2021/10/26 12:34:46;;;;;;;;;;;;;;;;;;;;;
2021/10/26 12:40:33;;;;;;;9.30;8.10;;;;;;;14.04;56.54;100208.05;226744;1199;139142;-70
2021/10/26 12:45:41;;;;;;;7.10;6.20;;;;;;;14.08;56.66;100209.49;228350;1200;139648;-69
2021/10/26 12:51:05;;;;;;;10.20;7.60;;;;;;;14.05;56.38;100206.08;228419;1198;139720;-70
2021/10/26 12:57:02;;;;;;;;;;;;;;;;;;;;;
2021/10/26 13:02:24;;;;;;;8.50;6.50;;;;;;;13.77;56.37;100209.13;229060;1198;139884;-69
2021/10/26 13:07:38;;;;;;;8.10;5.60;;;;;;;13.63;56.33;100225.21;228941;1197;139742;-69
2021/10/26 13:12:43;;;;;;;6.60;5.90;;;;;;;13.55;56.82;100223.17;229126;1199;139677;-69
2021/10/26 13:18:11;;;;;;;;;;;;;;;;;;;;;
2021/10/26 13:23:49;;;;;;;;;;;;;;;;;;;;;
2021/10/26 13:29:35;;;;;;;;;;;;;;;13.41;57.05;100228.09;226957;1198;141168;-69
2021/10/26 13:34:42;;;;;;;10.90;6.90;;;;;;;13.24;56.98;100224.25;227047;1183;126084;-69
2021/10/26 13:40:29;;;;;;;7.90;5.90;;;;;;;13.16;57.18;100224.73;226315;1198;139534;-69
2021/10/26 13:45:46;;;;;;;12.40;7.00;;;;;;;13.28;57.35;100223.61;226182;1198;141204;-70
2021/10/26 13:51:28;;;;;;;9.50;6.40;;;;;;;13.49;57.44;100224.64;226883;1200;139334;-69
2021/10/26 13:57:18;;;;;;;12.60;8.60;;;;;;;13.57;57.29;100226.92;226296;1198;140759;-70
2021/10/26 14:02:46;;;;;;;10.50;7.70;;;;;;;13.46;57.09;100227.59;226260;1198;140261;-69
2021/10/26 14:08:30;;;;;;;9.70;8.20;;;;;;;13.35;57.17;100224.02;226354;1200;141493;-70
2021/10/26 14:13:40;;;;;;;15.30;8.30;;;;;;;13.15;57.20;100228.20;226666;1198;140262;-69
2021/10/26 14:18:56;;;;;;;9.30;7.70;;;;;;;12.95;57.46;100236.42;226223;1198;140410;-69
2021/10/26 14:24:20;;;;;;;;;;;;;;;;;;;;;
2021/10/26 14:30:03;;;;;;;;;;;;;;;;;;;;;
2021/10/26 14:35:59;;;;;;;9.90;8.40;;;;;;;12.63;58.25;100242.61;226530;1198;140379;-70
2021/10/26 14:57:45;;;;;;;10.50;7.40;;;;;;;12.33;59.22;100249.71;227635;1198;139250;-70
2021/10/26 15:02:54;;;;;;;13.60;9.40;;;;;;;12.27;59.39;100255.61;229115;1198;140058;-70
2021/10/26 15:07:58;;;;;;;9.30;8.10;;;;;;;12.19;59.67;100259.67;229300;1198;140605;-70
2021/10/26 15:13:39;;;;;;;9.10;7.20;;;;;;;12.12;59.64;100270.85;229395;1198;139192;-70
2021/10/26 15:18:47;;;;;;;14.70;8.60;;;;;;;12.04;59.94;100266.90;226685;1198;141707;-69
2021/10/26 15:35:24;;;;;;;15.10;8.70;;;;;;;11.79;60.27;100273.93;228033;1198;139905;-68
2021/10/26 15:40:35;;;;;;;15.10;8.50;;;;;;;11.73;60.53;100280.44;227009;1199;139674;-69
2021/10/26 15:45:40;;;;;;;18.90;11.40;;;;;;;11.70;60.59;100279.61;226561;1200;139480;-70
2021/10/26 15:51:28;;;;;;;16.50;10.70;;;;;;;11.72;60.82;100282.14;227674;1200;141769;-70
2021/10/26 15:57:14;;;;;;;18.10;10.80;;;;;;;11.74;61.05;100282.70;226912;1199;140468;-69
2021/10/26 16:02:55;;;;;;;16.70;11.40;;;;;;;11.71;60.99;100287.07;227104;1198;140148;-69
2021/10/26 16:08:19;;;;;;;;;;;;;;;;;;;;;
2021/10/26 16:13:33;;;;;;;17.40;11.60;;;;;;;11.61;61.59;100293.85;226458;1200;139606;-69
2021/10/26 16:18:42;;;;;;;17.70;12.10;;;;;;;11.52;61.68;100304.14;226263;1200;139787;-69
2021/10/26 16:24:07;;;;;;;;;;;;;;;;;;;;;
2021/10/26 16:29:34;;;;;;;16.50;11.20;;;;;;;11.38;62.24;100308.52;226994;1200;139560;-69
2021/10/26 16:34:56;;;;;;;20.30;12.60;;;;;;;11.33;62.49;100317.94;227004;1199;140438;-69
2021/10/26 16:40:40;;;;;;;13.40;9.70;;;;;;;11.29;62.67;100321.46;226184;1198;141204;-68
2021/10/26 16:46:02;;;;;;;18.20;11.70;;;;;;;11.23;62.82;100325.30;227745;1199;141062;-67
2021/10/26 16:51:15;;;;;;;17.60;13.40;;;;;;;11.27;62.91;100327.48;226547;1199;140571;-67
2021/10/26 16:56:47;;;;;;;21.60;13.90;;;;;;;11.33;63.22;100331.97;228687;1198;140668;-69
2021/10/26 17:02:01;;;;;;;17.00;12.70;;;;;;;11.39;63.20;100335.34;228498;1198;141460;-69
2021/10/26 17:07:41;;;;;;;18.70;13.30;;;;;;;11.42;63.47;100345.53;229186;1198;139827;-69
2021/10/26 17:13:15;;;;;;;13.90;11.30;;;;;;;11.41;63.30;100349.33;227464;1200;142856;-69
2021/10/26 17:19:10;;;;;;;;;;;;;;;;;;;;;
2021/10/26 17:24:26;;;;;;;15.50;11.10;;;;;;;11.37;63.84;100362.55;227094;1198;140873;-69
2021/10/26 17:29:51;;;;;;;;;;;;;;;;;;;;;
2021/10/26 17:35:18;;;;;;;28.10;14.10;;;;;;;11.40;63.93;100370.13;226877;1198;140344;-70
2021/10/26 17:40:55;;;;;;;;;;;;;;;;;;;;;
2021/10/26 17:46:28;;;;;;;25.70;14.50;;;;;;;11.46;64.07;100367.27;226805;1198;140988;-68
2021/10/26 17:52:16;;;;;;;19.10;10.40;;;;;;;11.47;64.42;100374.59;226714;1198;140683;-69
2021/10/26 17:57:34;;;;;;;18.20;11.80;;;;;;;11.44;64.29;100376.19;226263;1198;140993;-68
2021/10/26 18:02:53;;;;;;;25.10;13.00;;;;;;;11.39;64.40;100371.69;226918;1198;141329;-70
2021/10/26 18:08:16;;;;;;;17.90;12.10;;;;;;;11.32;64.57;100373.67;226438;1198;141450;-69
2021/10/26 18:13:47;;;;;;;19.40;13.70;;;;;;;11.25;64.66;100377.26;226535;1198;140463;-69
2021/10/26 18:19:01;;;;;;;27.80;14.60;;;;;;;11.29;64.89;100378.53;226384;1198;141280;-68
2021/10/26 18:24:16;;;;;;;;;;;;;;;;;;;;;
2021/10/26 18:29:34;;;;;;;23.00;14.40;;;;;;;11.29;65.13;100380.70;226199;1198;140270;-71
2021/10/26 18:34:44;;;;;;;16.60;13.70;;;;;;;11.27;65.38;100380.89;226269;1198;246757;-69
2021/10/26 18:40:10;;;;;;;;;;;;;;;;;;;;;
2021/10/26 18:45:54;;;;;;;17.30;11.40;;;;;;;11.25;65.66;100391.87;227608;1198;141481;-67
2021/10/26 18:51:25;;;;;;;;;;;;;;;;;;;;;
2021/10/26 18:56:33;;;;;;;26.80;15.50;;;;;;;11.28;65.53;100397.30;227653;1198;140588;-69
2021/10/26 19:01:51;;;;;;;29.50;15.50;;;;;;;11.29;65.64;100396.72;229406;1198;141016;-69
2021/10/26 19:07:21;;;;;;;27.00;16.40;;;;;;;11.29;65.84;100398.12;229270;1198;140937;-70
2021/10/26 19:12:26;;;;;;;21.50;15.00;;;;;;;11.32;65.98;100401.06;229046;1198;140581;-71
2021/10/26 19:17:34;;;;;;;23.90;15.10;;;;;;;11.26;65.58;100404.51;227171;1198;140138;-69
2021/10/26 19:22:51;;;;;;;27.30;15.30;;;;;;;11.22;65.91;100405.70;227322;1198;140479;-68
2021/10/26 19:28:03;;;;;;;24.10;17.50;;;;;;;11.24;65.66;100409.17;226130;1198;141507;-69
2021/10/26 19:33:21;;;;;;;;;;;;;;;;;;;;;
2021/10/26 19:38:58;;;;;;;26.60;17.50;;;;;;;11.17;66.04;100422.21;226764;1198;139698;-69
2021/10/26 19:44:34;;;;;;;;;;;;;;;;;;;;;
2021/10/26 19:49:54;;;;;;;;;;;;;;;;;;;;;
2021/10/26 19:55:20;;;;;;;37.60;18.40;;;;;;;10.96;66.32;100426.46;227039;1200;141351;-69
2021/10/26 20:01:07;;;;;;;;;;;;;;;;;;;;;
2021/10/26 20:06:25;;;;;;;38.50;17.90;;;;;;;10.85;66.29;100446.09;227065;1198;140855;-69
2021/10/26 20:11:41;;;;;;;22.70;14.60;;;;;;;10.82;66.69;100448.33;227371;1195;140010;-68
2021/10/26 20:16:49;;;;;;;13.10;10.50;;;;;;;10.76;66.96;100456.38;226258;1198;139945;-69
2021/10/26 20:21:58;;;;;;;30.80;19.10;;;;;;;10.68;66.89;100452.19;226709;1198;140119;-71
2021/10/26 20:32:53;;;;;;;31.20;17.10;;;;;;;10.69;67.18;100452.80;227086;1200;163213;-71
2021/10/26 20:38:02;;;;;;;;;;;;;;;10.63;67.33;100456.01;227801;1198;139938;-70
2021/10/26 20:43:13;;;;;;;24.50;18.10;;;;;;;10.53;67.38;100453.69;227526;1198;127234;-70
2021/10/26 20:48:51;;;;;;;23.80;17.70;;;;;;;10.50;67.49;100455.35;227952;1198;140539;-68
2021/10/26 20:54:18;;;;;;;;;;;;;;;10.50;67.65;100458.73;226708;1198;141064;-66
2021/10/26 20:59:22;;;;;;;29.00;17.30;;;;;;;10.46;68.05;100456.52;229205;1198;127593;-69
2021/10/26 21:04:31;;;;;;;113.00;65.10;;;;;;;10.43;67.87;100458.48;229107;1198;141015;-69
2021/10/26 21:09:35;;;;;;;31.60;20.60;;;;;;;10.37;68.11;100457.83;228910;1198;141157;-68
2021/10/26 21:15:16;;;;;;;;;;;;;;;;;;;;;
2021/10/26 21:20:35;;;;;;;30.00;19.70;;;;;;;10.29;67.90;100454.77;229032;1200;141900;-66
2021/10/26 21:25:40;;;;;;;30.20;18.10;;;;;;;10.24;68.09;100453.20;226299;1200;143088;-71
2021/10/26 21:30:49;;;;;;;34.20;19.10;;;;;;;10.19;68.26;100454.36;226185;1198;141074;-69
2021/10/26 21:36:00;;;;;;;28.90;17.50;;;;;;;10.09;68.41;100454.90;227368;1198;142763;-69
2021/10/26 21:41:28;;;;;;;28.10;18.70;;;;;;;9.98;68.42;100450.17;226680;1198;140461;-69
2021/10/26 21:47:04;;;;;;;;;;;;;;;;;;;;;
2021/10/26 21:52:18;;;;;;;26.00;17.50;;;;;;;9.80;68.88;100457.18;226216;1200;139981;-68
2021/10/26 21:57:21;;;;;;;23.10;17.20;;;;;;;9.73;68.91;100463.09;227870;1198;140538;-69
2021/10/26 22:02:26;;;;;;;22.40;16.10;;;;;;;9.66;69.13;100468.11;226459;1199;229518;-68
2021/10/26 22:07:31;;;;;;;26.30;16.40;;;;;;;9.58;69.11;100477.46;228739;1198;140069;-70
2021/10/26 22:12:57;;;;;;;31.10;17.00;;;;;;;9.57;69.13;100477.75;226740;1198;140889;-69
2021/10/26 22:18:12;;;;;;;28.10;18.60;;;;;;;9.56;69.34;100478.61;226218;1200;141140;-67
2021/10/26 22:23:24;;;;;;;27.00;17.70;;;;;;;9.56;69.59;100480.33;226471;1199;139743;-70
2021/10/26 22:28:50;;;;;;;24.10;16.20;;;;;;;9.53;69.66;100480.55;226569;1198;139618;-69
2021/10/26 22:34:46;;;;;;;28.30;18.20;;;;;;;9.53;69.74;100483.77;227093;1198;141607;-70
2021/10/26 22:39:57;;;;;;;32.40;18.80;;;;;;;9.54;69.95;100484.35;227010;1199;141268;-73
2021/10/26 22:45:20;;;;;;;25.20;16.30;;;;;;;9.57;70.09;100480.41;226211;1199;140806;-68
2021/10/26 22:50:57;;;;;;;22.80;15.10;;;;;;;9.57;70.10;100475.79;226583;1198;140198;-68
2021/10/26 22:56:19;;;;;;;23.20;14.70;;;;;;;9.59;70.20;100469.89;226642;1199;141592;-68
2021/10/26 23:01:23;;;;;;;16.70;12.20;;;;;;;9.58;70.33;100475.78;227666;1198;140330;-67
2021/10/26 23:06:48;;;;;;;20.50;12.40;;;;;;;9.58;70.32;100480.86;227802;1198;140363;-70
2021/10/26 23:12:13;;;;;;;27.00;15.70;;;;;;;9.58;70.59;100484.02;226101;1198;139532;-70
2021/10/26 23:17:18;;;;;;;23.60;13.90;;;;;;;9.63;70.53;100482.77;228966;1199;140899;-72
2021/10/26 23:22:22;;;;;;;21.90;11.60;;;;;;;9.68;70.75;100488.41;228319;1199;141443;-69
2021/10/26 23:27:33;;;;;;;23.60;14.00;;;;;;;9.69;70.69;100489.35;226687;1198;140016;-69
2021/10/26 23:32:46;;;;;;;23.40;15.00;;;;;;;9.73;70.81;100488.48;228139;1198;140142;-67
2021/10/26 23:38:13;;;;;;;22.50;13.50;;;;;;;9.75;70.81;100491.18;227324;1198;140394;-69
2021/10/26 23:43:27;;;;;;;24.40;15.00;;;;;;;9.80;70.70;100491.55;226955;1198;140475;-68
2021/10/26 23:48:41;;;;;;;19.90;13.70;;;;;;;9.84;70.86;100486.48;227009;1198;141120;-68
2021/10/26 23:54:04;;;;;;;20.40;14.20;;;;;;;9.85;70.99;100489.31;226442;1199;139806;-69
2021/10/26 23:59:22;;;;;;;16.90;13.20;;;;;;;9.84;70.85;100489.48;227549;1198;141031;-69
